Terminal Aerodrome Forecast
Issued by NWS

Home | Current Version | Previous Version | Graphics & Text | Print | Product List | Glossary On
Versions: 1 2 3 4 5 6 7 8 9 10 11 12 13 14 15 16 17 18
303
FTUS43 KBIS 161309 AAA
TAFJMS
TAF AMD
KJMS 161309Z 1613/1712 34010KT 6SM BR SCT007 OVC012
      TEMPO 1613/1615 4SM -DZ BR BKN007 OVC012
     FM161500 34009KT 3SM -SHRA BR OVC012
     FM161800 33009KT P6SM VCSH OVC010
     FM162100 32009KT P6SM OVC015
     FM170700 29013KT P6SM BKN035=

USA.gov is the U.S. government's official web portal to all federal, state and local government web resources and services.